sensor_id;sensor_type;location;lat;lon;timestamp;P1;durP1;ratioP1;P2;durP2;ratioP2
44328;SDS011;30039;51.462;6.892;2023-04-25T00:00:22;9.52;;;3.13;;
44328;SDS011;30039;51.462;6.892;2023-04-25T00:03:08;9.45;;;3.35;;
44328;SDS011;30039;51.462;6.892;2023-04-25T00:05:54;8.95;;;3.42;;
44328;SDS011;30039;51.462;6.892;2023-04-25T00:08:42;9.52;;;3.53;;
44328;SDS011;30039;51.462;6.892;2023-04-25T00:11:27;8.07;;;2.88;;
44328;SDS011;30039;51.462;6.892;2023-04-25T00:14:13;12.73;;;3.55;;
44328;SDS011;30039;51.462;6.892;2023-04-25T00:16:59;8.95;;;3.10;;
44328;SDS011;30039;51.462;6.892;2023-04-25T00:19:45;7.25;;;2.65;;
44328;SDS011;30039;51.462;6.892;2023-04-25T00:22:32;10.10;;;3.08;;
44328;SDS011;30039;51.462;6.892;2023-04-25T00:25:19;8.82;;;2.90;;
44328;SDS011;30039;51.462;6.892;2023-04-25T00:28:04;9.10;;;3.05;;
44328;SDS011;30039;51.462;6.892;2023-04-25T00:30:50;8.70;;;2.92;;
44328;SDS011;30039;51.462;6.892;2023-04-25T00:33:36;11.90;;;3.42;;
44328;SDS011;30039;51.462;6.892;2023-04-25T00:36:21;8.38;;;3.67;;
44328;SDS011;30039;51.462;6.892;2023-04-25T00:39:07;6.28;;;3.08;;
44328;SDS011;30039;51.462;6.892;2023-04-25T00:41:53;11.38;;;3.25;;
44328;SDS011;30039;51.462;6.892;2023-04-25T00:44:40;7.47;;;3.15;;
44328;SDS011;30039;51.462;6.892;2023-04-25T00:47:26;8.68;;;3.53;;
44328;SDS011;30039;51.462;6.892;2023-04-25T00:50:12;6.38;;;2.65;;
44328;SDS011;30039;51.462;6.892;2023-04-25T00:52:57;9.52;;;3.33;;
44328;SDS011;30039;51.462;6.892;2023-04-25T00:55:45;6.82;;;3.50;;
44328;SDS011;30039;51.462;6.892;2023-04-25T00:58:31;8.80;;;3.45;;
44328;SDS011;30039;51.462;6.892;2023-04-25T01:01:17;8.02;;;3.33;;
44328;SDS011;30039;51.462;6.892;2023-04-25T01:04:02;9.73;;;3.40;;
44328;SDS011;30039;51.462;6.892;2023-04-25T01:06:48;8.98;;;3.42;;
44328;SDS011;30039;51.462;6.892;2023-04-25T01:09:33;11.15;;;3.30;;
44328;SDS011;30039;51.462;6.892;2023-04-25T01:12:19;8.32;;;3.33;;
44328;SDS011;30039;51.462;6.892;2023-04-25T01:15:05;8.13;;;3.28;;
44328;SDS011;30039;51.462;6.892;2023-04-25T01:17:51;6.00;;;3.05;;
44328;SDS011;30039;51.462;6.892;2023-04-25T01:20:36;6.75;;;3.25;;
44328;SDS011;30039;51.462;6.892;2023-04-25T01:23:22;6.47;;;3.08;;
44328;SDS011;30039;51.462;6.892;2023-04-25T01:26:08;9.63;;;3.30;;
44328;SDS011;30039;51.462;6.892;2023-04-25T01:28:54;13.60;;;3.88;;
44328;SDS011;30039;51.462;6.892;2023-04-25T01:31:40;11.15;;;3.60;;
44328;SDS011;30039;51.462;6.892;2023-04-25T01:34:26;10.48;;;3.90;;
44328;SDS011;30039;51.462;6.892;2023-04-25T01:37:12;12.25;;;3.50;;
44328;SDS011;30039;51.462;6.892;2023-04-25T01:39:57;14.52;;;3.80;;
44328;SDS011;30039;51.462;6.892;2023-04-25T01:42:43;10.02;;;3.40;;
44328;SDS011;30039;51.462;6.892;2023-04-25T01:45:29;9.60;;;3.53;;
44328;SDS011;30039;51.462;6.892;2023-04-25T01:48:14;7.32;;;3.40;;
44328;SDS011;30039;51.462;6.892;2023-04-25T01:51:01;11.18;;;3.90;;
44328;SDS011;30039;51.462;6.892;2023-04-25T01:53:47;6.88;;;3.13;;
44328;SDS011;30039;51.462;6.892;2023-04-25T01:56:33;9.55;;;2.90;;
44328;SDS011;30039;51.462;6.892;2023-04-25T01:59:21;8.75;;;3.40;;
44328;SDS011;30039;51.462;6.892;2023-04-25T02:02:07;10.57;;;4.05;;
44328;SDS011;30039;51.462;6.892;2023-04-25T02:04:53;9.73;;;3.53;;
44328;SDS011;30039;51.462;6.892;2023-04-25T02:07:39;9.48;;;3.28;;
44328;SDS011;30039;51.462;6.892;2023-04-25T02:10:25;8.70;;;4.03;;
44328;SDS011;30039;51.462;6.892;2023-04-25T02:13:11;13.65;;;3.75;;
44328;SDS011;30039;51.462;6.892;2023-04-25T02:15:56;10.77;;;3.78;;
44328;SDS011;30039;51.462;6.892;2023-04-25T02:18:42;10.00;;;3.55;;
44328;SDS011;30039;51.462;6.892;2023-04-25T02:21:28;10.63;;;3.95;;
44328;SDS011;30039;51.462;6.892;2023-04-25T02:24:13;11.68;;;3.75;;
44328;SDS011;30039;51.462;6.892;2023-04-25T02:26:59;12.07;;;3.83;;
44328;SDS011;30039;51.462;6.892;2023-04-25T02:29:45;9.50;;;3.55;;
44328;SDS011;30039;51.462;6.892;2023-04-25T02:32:32;6.13;;;3.40;;
44328;SDS011;30039;51.462;6.892;2023-04-25T02:35:19;9.73;;;3.55;;
44328;SDS011;30039;51.462;6.892;2023-04-25T02:38:05;8.52;;;3.25;;
44328;SDS011;30039;51.462;6.892;2023-04-25T02:40:51;10.68;;;3.53;;
44328;SDS011;30039;51.462;6.892;2023-04-25T02:43:36;11.35;;;3.78;;
44328;SDS011;30039;51.462;6.892;2023-04-25T02:46:22;10.27;;;3.95;;
44328;SDS011;30039;51.462;6.892;2023-04-25T02:49:08;11.35;;;4.03;;
44328;SDS011;30039;51.462;6.892;2023-04-25T02:51:53;13.02;;;3.67;;
44328;SDS011;30039;51.462;6.892;2023-04-25T02:54:42;10.63;;;3.20;;
44328;SDS011;30039;51.462;6.892;2023-04-25T02:57:28;9.55;;;3.85;;
44328;SDS011;30039;51.462;6.892;2023-04-25T03:00:13;9.93;;;3.75;;
44328;SDS011;30039;51.462;6.892;2023-04-25T03:02:59;7.50;;;3.53;;
44328;SDS011;30039;51.462;6.892;2023-04-25T03:05:45;8.07;;;3.35;;
44328;SDS011;30039;51.462;6.892;2023-04-25T03:08:32;10.23;;;3.60;;
44328;SDS011;30039;51.462;6.892;2023-04-25T03:11:19;12.60;;;3.55;;
44328;SDS011;30039;51.462;6.892;2023-04-25T03:14:06;11.88;;;4.10;;
44328;SDS011;30039;51.462;6.892;2023-04-25T03:16:52;13.02;;;4.18;;
44328;SDS011;30039;51.462;6.892;2023-04-25T03:19:38;9.48;;;3.72;;
44328;SDS011;30039;51.462;6.892;2023-04-25T03:22:23;17.05;;;3.97;;
44328;SDS011;30039;51.462;6.892;2023-04-25T03:25:09;13.15;;;3.72;;
44328;SDS011;30039;51.462;6.892;2023-04-25T03:27:55;13.65;;;3.58;;
44328;SDS011;30039;51.462;6.892;2023-04-25T03:30:40;10.82;;;4.00;;
44328;SDS011;30039;51.462;6.892;2023-04-25T03:33:26;12.57;;;4.00;;
44328;SDS011;30039;51.462;6.892;2023-04-25T03:36:12;12.05;;;4.00;;
44328;SDS011;30039;51.462;6.892;2023-04-25T03:38:57;15.30;;;3.75;;
44328;SDS011;30039;51.462;6.892;2023-04-25T03:41:43;12.90;;;3.53;;
44328;SDS011;30039;51.462;6.892;2023-04-25T03:44:30;12.95;;;4.22;;
44328;SDS011;30039;51.462;6.892;2023-04-25T03:47:17;19.73;;;3.78;;
44328;SDS011;30039;51.462;6.892;2023-04-25T03:50:02;12.40;;;3.42;;
44328;SDS011;30039;51.462;6.892;2023-04-25T03:52:48;9.95;;;4.15;;
44328;SDS011;30039;51.462;6.892;2023-04-25T03:55:34;11.40;;;3.65;;
44328;SDS011;30039;51.462;6.892;2023-04-25T03:58:21;11.45;;;4.40;;
44328;SDS011;30039;51.462;6.892;2023-04-25T04:01:08;13.35;;;4.38;;
44328;SDS011;30039;51.462;6.892;2023-04-25T04:03:54;12.35;;;4.35;;
44328;SDS011;30039;51.462;6.892;2023-04-25T04:06:40;11.27;;;4.10;;
44328;SDS011;30039;51.462;6.892;2023-04-25T04:09:25;11.57;;;4.18;;
44328;SDS011;30039;51.462;6.892;2023-04-25T04:12:12;10.40;;;4.47;;
44328;SDS011;30039;51.462;6.892;2023-04-25T04:14:58;11.85;;;4.32;;
44328;SDS011;30039;51.462;6.892;2023-04-25T04:17:44;9.50;;;4.28;;
44328;SDS011;30039;51.462;6.892;2023-04-25T04:20:30;17.75;;;5.57;;
44328;SDS011;30039;51.462;6.892;2023-04-25T04:23:16;15.43;;;4.57;;
44328;SDS011;30039;51.462;6.892;2023-04-25T04:26:01;17.75;;;4.93;;
44328;SDS011;30039;51.462;6.892;2023-04-25T04:28:47;10.70;;;4.47;;
44328;SDS011;30039;51.462;6.892;2023-04-25T04:31:33;17.48;;;4.38;;
44328;SDS011;30039;51.462;6.892;2023-04-25T04:34:18;11.75;;;4.00;;
44328;SDS011;30039;51.462;6.892;2023-04-25T04:37:04;9.25;;;3.90;;
44328;SDS011;30039;51.462;6.892;2023-04-25T04:39:51;14.43;;;5.13;;
44328;SDS011;30039;51.462;6.892;2023-04-25T04:42:37;10.20;;;3.97;;
44328;SDS011;30039;51.462;6.892;2023-04-25T04:45:26;13.73;;;4.20;;
44328;SDS011;30039;51.462;6.892;2023-04-25T04:48:12;22.67;;;6.85;;
44328;SDS011;30039;51.462;6.892;2023-04-25T04:50:59;9.70;;;4.32;;
44328;SDS011;30039;51.462;6.892;2023-04-25T04:53:45;12.02;;;4.57;;
44328;SDS011;30039;51.462;6.892;2023-04-25T04:56:31;14.00;;;3.88;;
44328;SDS011;30039;51.462;6.892;2023-04-25T04:59:17;12.80;;;3.47;;
44328;SDS011;30039;51.462;6.892;2023-04-25T05:02:03;13.68;;;3.92;;
44328;SDS011;30039;51.462;6.892;2023-04-25T05:04:48;12.57;;;3.38;;
44328;SDS011;30039;51.462;6.892;2023-04-25T05:07:34;10.13;;;3.13;;
44328;SDS011;30039;51.462;6.892;2023-04-25T05:10:20;8.77;;;3.78;;
44328;SDS011;30039;51.462;6.892;2023-04-25T05:13:06;10.43;;;3.28;;
44328;SDS011;30039;51.462;6.892;2023-04-25T05:15:52;13.30;;;3.70;;
44328;SDS011;30039;51.462;6.892;2023-04-25T05:18:38;16.67;;;4.18;;
44328;SDS011;30039;51.462;6.892;2023-04-25T05:21:24;14.57;;;3.58;;
44328;SDS011;30039;51.462;6.892;2023-04-25T05:24:09;14.80;;;3.50;;
44328;SDS011;30039;51.462;6.892;2023-04-25T05:26:55;12.23;;;3.50;;
44328;SDS011;30039;51.462;6.892;2023-04-25T05:29:41;11.88;;;3.80;;
44328;SDS011;30039;51.462;6.892;2023-04-25T05:32:27;8.95;;;3.40;;
44328;SDS011;30039;51.462;6.892;2023-04-25T05:35:12;10.48;;;3.63;;
44328;SDS011;30039;51.462;6.892;2023-04-25T05:37:58;12.05;;;4.45;;
44328;SDS011;30039;51.462;6.892;2023-04-25T05:40:45;8.90;;;3.92;;
44328;SDS011;30039;51.462;6.892;2023-04-25T05:43:30;11.20;;;3.40;;
44328;SDS011;30039;51.462;6.892;2023-04-25T05:46:16;9.20;;;3.33;;
44328;SDS011;30039;51.462;6.892;2023-04-25T05:49:05;8.93;;;3.45;;
44328;SDS011;30039;51.462;6.892;2023-04-25T05:51:51;9.52;;;3.40;;
44328;SDS011;30039;51.462;6.892;2023-04-25T05:54:36;15.13;;;4.30;;
44328;SDS011;30039;51.462;6.892;2023-04-25T05:57:23;13.65;;;3.88;;
44328;SDS011;30039;51.462;6.892;2023-04-25T06:00:09;13.75;;;4.25;;
44328;SDS011;30039;51.462;6.892;2023-04-25T06:02:55;14.15;;;4.30;;
44328;SDS011;30039;51.462;6.892;2023-04-25T06:05:41;11.65;;;4.13;;
44328;SDS011;30039;51.462;6.892;2023-04-25T06:08:27;13.48;;;4.38;;
44328;SDS011;30039;51.462;6.892;2023-04-25T06:11:13;16.30;;;3.88;;
44328;SDS011;30039;51.462;6.892;2023-04-25T06:13:58;12.55;;;3.55;;
44328;SDS011;30039;51.462;6.892;2023-04-25T06:16:44;9.68;;;3.42;;
44328;SDS011;30039;51.462;6.892;2023-04-25T06:19:31;13.43;;;3.80;;
44328;SDS011;30039;51.462;6.892;2023-04-25T06:22:16;8.40;;;3.42;;
44328;SDS011;30039;51.462;6.892;2023-04-25T06:25:02;7.50;;;3.50;;
44328;SDS011;30039;51.462;6.892;2023-04-25T06:27:49;8.48;;;3.08;;
44328;SDS011;30039;51.462;6.892;2023-04-25T06:30:35;9.48;;;3.10;;
44328;SDS011;30039;51.462;6.892;2023-04-25T06:33:20;12.15;;;3.33;;
44328;SDS011;30039;51.462;6.892;2023-04-25T06:36:07;10.10;;;3.05;;
44328;SDS011;30039;51.462;6.892;2023-04-25T06:38:52;4.32;;;2.22;;
44328;SDS011;30039;51.462;6.892;2023-04-25T06:41:38;11.73;;;3.60;;
44328;SDS011;30039;51.462;6.892;2023-04-25T06:44:23;8.98;;;2.60;;
44328;SDS011;30039;51.462;6.892;2023-04-25T06:47:11;11.25;;;2.78;;
44328;SDS011;30039;51.462;6.892;2023-04-25T06:49:57;11.07;;;2.53;;
44328;SDS011;30039;51.462;6.892;2023-04-25T06:52:42;10.57;;;2.63;;
44328;SDS011;30039;51.462;6.892;2023-04-25T06:55:28;8.32;;;2.40;;
44328;SDS011;30039;51.462;6.892;2023-04-25T06:58:14;9.23;;;2.50;;
44328;SDS011;30039;51.462;6.892;2023-04-25T07:00:59;8.73;;;2.50;;
44328;SDS011;30039;51.462;6.892;2023-04-25T07:03:45;9.07;;;2.65;;
44328;SDS011;30039;51.462;6.892;2023-04-25T07:06:31;6.22;;;2.20;;
44328;SDS011;30039;51.462;6.892;2023-04-25T07:09:17;6.75;;;2.20;;
44328;SDS011;30039;51.462;6.892;2023-04-25T07:12:03;9.10;;;2.58;;
44328;SDS011;30039;51.462;6.892;2023-04-25T07:14:49;4.45;;;1.80;;
44328;SDS011;30039;51.462;6.892;2023-04-25T07:17:35;10.77;;;2.53;;
44328;SDS011;30039;51.462;6.892;2023-04-25T07:20:20;4.88;;;1.92;;
44328;SDS011;30039;51.462;6.892;2023-04-25T07:23:06;7.85;;;2.08;;
44328;SDS011;30039;51.462;6.892;2023-04-25T07:25:52;6.35;;;2.00;;
44328;SDS011;30039;51.462;6.892;2023-04-25T07:28:37;5.70;;;1.95;;
44328;SDS011;30039;51.462;6.892;2023-04-25T07:31:23;8.52;;;1.95;;
44328;SDS011;30039;51.462;6.892;2023-04-25T07:34:09;6.35;;;1.73;;
44328;SDS011;30039;51.462;6.892;2023-04-25T07:36:56;5.90;;;1.70;;
44328;SDS011;30039;51.462;6.892;2023-04-25T07:39:42;6.75;;;2.17;;
44328;SDS011;30039;51.462;6.892;2023-04-25T07:42:28;3.63;;;1.17;;
44328;SDS011;30039;51.462;6.892;2023-04-25T07:45:14;5.00;;;1.58;;
44328;SDS011;30039;51.462;6.892;2023-04-25T07:48:01;7.97;;;2.63;;
44328;SDS011;30039;51.462;6.892;2023-04-25T07:50:50;4.70;;;1.30;;
44328;SDS011;30039;51.462;6.892;2023-04-25T07:53:36;7.18;;;1.80;;
44328;SDS011;30039;51.462;6.892;2023-04-25T07:56:22;5.53;;;1.60;;
44328;SDS011;30039;51.462;6.892;2023-04-25T07:59:08;11.02;;;2.28;;
44328;SDS011;30039;51.462;6.892;2023-04-25T08:01:54;6.57;;;1.60;;
44328;SDS011;30039;51.462;6.892;2023-04-25T08:04:40;9.63;;;1.80;;
44328;SDS011;30039;51.462;6.892;2023-04-25T08:07:26;6.80;;;1.58;;
44328;SDS011;30039;51.462;6.892;2023-04-25T08:10:13;6.38;;;1.73;;
44328;SDS011;30039;51.462;6.892;2023-04-25T08:12:58;6.10;;;1.60;;
44328;SDS011;30039;51.462;6.892;2023-04-25T08:15:44;9.77;;;1.92;;
44328;SDS011;30039;51.462;6.892;2023-04-25T08:18:32;9.70;;;1.70;;
44328;SDS011;30039;51.462;6.892;2023-04-25T08:21:18;7.15;;;1.65;;
44328;SDS011;30039;51.462;6.892;2023-04-25T08:24:04;8.65;;;1.77;;
44328;SDS011;30039;51.462;6.892;2023-04-25T08:26:50;7.97;;;1.83;;
44328;SDS011;30039;51.462;6.892;2023-04-25T08:29:36;4.57;;;1.58;;
44328;SDS011;30039;51.462;6.892;2023-04-25T08:32:22;6.50;;;1.65;;
44328;SDS011;30039;51.462;6.892;2023-04-25T08:35:07;6.95;;;1.50;;
44328;SDS011;30039;51.462;6.892;2023-04-25T08:37:53;5.63;;;1.48;;
44328;SDS011;30039;51.462;6.892;2023-04-25T08:40:39;6.45;;;1.50;;
44328;SDS011;30039;51.462;6.892;2023-04-25T08:43:25;6.30;;;2.35;;
44328;SDS011;30039;51.462;6.892;2023-04-25T08:46:12;13.63;;;4.40;;
44328;SDS011;30039;51.462;6.892;2023-04-25T08:49:00;4.05;;;1.23;;
44328;SDS011;30039;51.462;6.892;2023-04-25T08:51:46;4.90;;;1.70;;
44328;SDS011;30039;51.462;6.892;2023-04-25T08:54:32;7.35;;;1.75;;
44328;SDS011;30039;51.462;6.892;2023-04-25T08:57:18;3.85;;;1.40;;
44328;SDS011;30039;51.462;6.892;2023-04-25T09:00:05;7.38;;;1.60;;
44328;SDS011;30039;51.462;6.892;2023-04-25T09:02:51;6.38;;;1.80;;
44328;SDS011;30039;51.462;6.892;2023-04-25T09:05:37;6.18;;;1.48;;
44328;SDS011;30039;51.462;6.892;2023-04-25T09:08:25;5.43;;;1.25;;
44328;SDS011;30039;51.462;6.892;2023-04-25T09:11:12;3.28;;;1.13;;
44328;SDS011;30039;51.462;6.892;2023-04-25T09:17:04;5.93;;;1.63;;
44328;SDS011;30039;51.462;6.892;2023-04-25T09:19:50;3.85;;;1.10;;
44328;SDS011;30039;51.462;6.892;2023-04-25T09:22:36;7.10;;;1.20;;
44328;SDS011;30039;51.462;6.892;2023-04-25T09:25:22;5.00;;;1.85;;
44328;SDS011;30039;51.462;6.892;2023-04-25T09:28:10;5.35;;;1.67;;
44328;SDS011;30039;51.462;6.892;2023-04-25T09:30:56;7.60;;;1.42;;
44328;SDS011;30039;51.462;6.892;2023-04-25T09:33:45;5.65;;;1.23;;
44328;SDS011;30039;51.462;6.892;2023-04-25T09:36:31;4.28;;;1.40;;
44328;SDS011;30039;51.462;6.892;2023-04-25T09:39:17;5.35;;;1.38;;
44328;SDS011;30039;51.462;6.892;2023-04-25T09:42:05;5.72;;;1.35;;
44328;SDS011;30039;51.462;6.892;2023-04-25T09:44:57;6.53;;;1.55;;
44328;SDS011;30039;51.462;6.892;2023-04-25T09:47:43;5.55;;;1.88;;
44328;SDS011;30039;51.462;6.892;2023-04-25T09:50:31;4.85;;;1.80;;
44328;SDS011;30039;51.462;6.892;2023-04-25T09:53:17;6.68;;;1.50;;
44328;SDS011;30039;51.462;6.892;2023-04-25T09:56:06;3.88;;;1.33;;
44328;SDS011;30039;51.462;6.892;2023-04-25T09:58:53;5.43;;;1.20;;
44328;SDS011;30039;51.462;6.892;2023-04-25T10:01:39;3.53;;;1.15;;
44328;SDS011;30039;51.462;6.892;2023-04-25T10:04:26;3.08;;;0.88;;
44328;SDS011;30039;51.462;6.892;2023-04-25T10:07:13;4.57;;;1.33;;
44328;SDS011;30039;51.462;6.892;2023-04-25T10:10:03;4.00;;;1.20;;
44328;SDS011;30039;51.462;6.892;2023-04-25T10:12:49;4.47;;;1.33;;
44328;SDS011;30039;51.462;6.892;2023-04-25T10:15:35;5.57;;;1.42;;
44328;SDS011;30039;51.462;6.892;2023-04-25T10:18:24;4.18;;;1.27;;
44328;SDS011;30039;51.462;6.892;2023-04-25T10:21:11;5.30;;;1.20;;
44328;SDS011;30039;51.462;6.892;2023-04-25T10:23:57;4.95;;;1.73;;
44328;SDS011;30039;51.462;6.892;2023-04-25T10:26:43;5.28;;;1.05;;
44328;SDS011;30039;51.462;6.892;2023-04-25T10:29:29;4.93;;;1.20;;
44328;SDS011;30039;51.462;6.892;2023-04-25T10:32:15;6.55;;;1.30;;
44328;SDS011;30039;51.462;6.892;2023-04-25T10:38:05;6.50;;;1.20;;
44328;SDS011;30039;51.462;6.892;2023-04-25T10:41:07;4.50;;;1.08;;
44328;SDS011;30039;51.462;6.892;2023-04-25T10:43:59;3.47;;;1.10;;
44328;SDS011;30039;51.462;6.892;2023-04-25T10:46:48;3.53;;;1.00;;
44328;SDS011;30039;51.462;6.892;2023-04-25T10:49:35;3.53;;;1.15;;
44328;SDS011;30039;51.462;6.892;2023-04-25T10:55:11;4.60;;;1.35;;
44328;SDS011;30039;51.462;6.892;2023-04-25T10:57:56;3.90;;;1.10;;
44328;SDS011;30039;51.462;6.892;2023-04-25T11:00:42;3.78;;;1.15;;
44328;SDS011;30039;51.462;6.892;2023-04-25T11:03:29;4.75;;;1.23;;
44328;SDS011;30039;51.462;6.892;2023-04-25T11:09:11;5.72;;;1.30;;
44328;SDS011;30039;51.462;6.892;2023-04-25T11:12:00;6.13;;;1.08;;
44328;SDS011;30039;51.462;6.892;2023-04-25T11:14:46;8.25;;;1.30;;
44328;SDS011;30039;51.462;6.892;2023-04-25T11:17:33;4.18;;;1.00;;
44328;SDS011;30039;51.462;6.892;2023-04-25T11:20:19;3.00;;;1.00;;
44328;SDS011;30039;51.462;6.892;2023-04-25T11:23:05;4.95;;;1.20;;
44328;SDS011;30039;51.462;6.892;2023-04-25T11:25:50;2.45;;;1.10;;
44328;SDS011;30039;51.462;6.892;2023-04-25T11:28:37;4.45;;;1.10;;
44328;SDS011;30039;51.462;6.892;2023-04-25T11:31:24;4.15;;;1.45;;
44328;SDS011;30039;51.462;6.892;2023-04-25T11:34:10;3.65;;;1.10;;
44328;SDS011;30039;51.462;6.892;2023-04-25T11:36:56;2.75;;;1.05;;
44328;SDS011;30039;51.462;6.892;2023-04-25T11:39:43;3.70;;;1.10;;
44328;SDS011;30039;51.462;6.892;2023-04-25T11:42:29;4.47;;;1.40;;
44328;SDS011;30039;51.462;6.892;2023-04-25T11:45:16;2.72;;;1.08;;
44328;SDS011;30039;51.462;6.892;2023-04-25T11:48:04;6.63;;;1.17;;
44328;SDS011;30039;51.462;6.892;2023-04-25T11:50:49;5.28;;;1.60;;
44328;SDS011;30039;51.462;6.892;2023-04-25T11:53:35;6.97;;;1.73;;
44328;SDS011;30039;51.462;6.892;2023-04-25T11:56:21;4.55;;;1.17;;
44328;SDS011;30039;51.462;6.892;2023-04-25T11:59:07;3.70;;;1.33;;
44328;SDS011;30039;51.462;6.892;2023-04-25T12:01:53;5.03;;;1.55;;
44328;SDS011;30039;51.462;6.892;2023-04-25T12:04:40;3.83;;;1.38;;
44328;SDS011;30039;51.462;6.892;2023-04-25T12:07:29;4.63;;;1.50;;
44328;SDS011;30039;51.462;6.892;2023-04-25T12:10:16;6.28;;;1.75;;
44328;SDS011;30039;51.462;6.892;2023-04-25T12:13:17;5.60;;;1.45;;
44328;SDS011;30039;51.462;6.892;2023-04-25T12:16:02;5.03;;;1.50;;
44328;SDS011;30039;51.462;6.892;2023-04-25T12:18:51;2.90;;;1.30;;
44328;SDS011;30039;51.462;6.892;2023-04-25T12:21:37;5.47;;;1.67;;
44328;SDS011;30039;51.462;6.892;2023-04-25T12:24:23;4.13;;;1.25;;
44328;SDS011;30039;51.462;6.892;2023-04-25T12:27:14;6.28;;;1.50;;
44328;SDS011;30039;51.462;6.892;2023-04-25T12:30:04;3.88;;;1.58;;
44328;SDS011;30039;51.462;6.892;2023-04-25T12:32:50;4.50;;;1.17;;
44328;SDS011;30039;51.462;6.892;2023-04-25T12:35:36;3.47;;;1.60;;
44328;SDS011;30039;51.462;6.892;2023-04-25T12:38:26;4.65;;;1.33;;
44328;SDS011;30039;51.462;6.892;2023-04-25T12:41:12;5.28;;;1.55;;
44328;SDS011;30039;51.462;6.892;2023-04-25T12:43:57;4.00;;;2.00;;
44328;SDS011;30039;51.462;6.892;2023-04-25T12:46:43;3.60;;;1.30;;
44328;SDS011;30039;51.462;6.892;2023-04-25T12:49:30;2.85;;;1.30;;
44328;SDS011;30039;51.462;6.892;2023-04-25T12:52:15;5.13;;;1.27;;
44328;SDS011;30039;51.462;6.892;2023-04-25T12:55:01;2.65;;;1.33;;
44328;SDS011;30039;51.462;6.892;2023-04-25T12:57:47;4.03;;;1.00;;
44328;SDS011;30039;51.462;6.892;2023-04-25T13:00:33;5.22;;;1.20;;
44328;SDS011;30039;51.462;6.892;2023-04-25T13:03:18;4.57;;;1.23;;
44328;SDS011;30039;51.462;6.892;2023-04-25T13:06:04;2.40;;;1.23;;
44328;SDS011;30039;51.462;6.892;2023-04-25T13:08:50;4.45;;;1.05;;
44328;SDS011;30039;51.462;6.892;2023-04-25T13:11:36;5.72;;;1.30;;
44328;SDS011;30039;51.462;6.892;2023-04-25T13:14:21;2.78;;;1.35;;
44328;SDS011;30039;51.462;6.892;2023-04-25T13:17:07;2.85;;;1.20;;
44328;SDS011;30039;51.462;6.892;2023-04-25T13:19:54;4.57;;;1.20;;
44328;SDS011;30039;51.462;6.892;2023-04-25T13:22:40;5.43;;;1.05;;
44328;SDS011;30039;51.462;6.892;2023-04-25T13:25:25;2.58;;;0.90;;
44328;SDS011;30039;51.462;6.892;2023-04-25T13:28:11;4.05;;;1.52;;
44328;SDS011;30039;51.462;6.892;2023-04-25T13:30:57;7.68;;;1.58;;
44328;SDS011;30039;51.462;6.892;2023-04-25T13:33:44;3.50;;;1.13;;
44328;SDS011;30039;51.462;6.892;2023-04-25T13:36:30;2.30;;;0.98;;
44328;SDS011;30039;51.462;6.892;2023-04-25T13:39:15;3.15;;;1.05;;
44328;SDS011;30039;51.462;6.892;2023-04-25T13:42:01;4.57;;;1.52;;
44328;SDS011;30039;51.462;6.892;2023-04-25T13:44:47;1.60;;;1.00;;
44328;SDS011;30039;51.462;6.892;2023-04-25T13:47:32;3.60;;;1.05;;
44328;SDS011;30039;51.462;6.892;2023-04-25T13:50:18;5.82;;;1.20;;
44328;SDS011;30039;51.462;6.892;2023-04-25T13:53:04;6.55;;;1.17;;
44328;SDS011;30039;51.462;6.892;2023-04-25T13:55:51;1.83;;;0.93;;
44328;SDS011;30039;51.462;6.892;2023-04-25T13:58:37;3.40;;;1.15;;
44328;SDS011;30039;51.462;6.892;2023-04-25T14:01:23;4.50;;;1.40;;
44328;SDS011;30039;51.462;6.892;2023-04-25T14:04:08;3.60;;;1.50;;
44328;SDS011;30039;51.462;6.892;2023-04-25T14:06:54;3.58;;;0.95;;
44328;SDS011;30039;51.462;6.892;2023-04-25T14:09:40;2.05;;;0.82;;
44328;SDS011;30039;51.462;6.892;2023-04-25T14:12:27;2.95;;;1.00;;
44328;SDS011;30039;51.462;6.892;2023-04-25T14:15:12;3.95;;;1.25;;
44328;SDS011;30039;51.462;6.892;2023-04-25T14:17:58;2.38;;;0.82;;
44328;SDS011;30039;51.462;6.892;2023-04-25T14:20:44;1.98;;;0.90;;
44328;SDS011;30039;51.462;6.892;2023-04-25T14:23:30;2.58;;;1.48;;
44328;SDS011;30039;51.462;6.892;2023-04-25T14:26:16;1.30;;;0.80;;
44328;SDS011;30039;51.462;6.892;2023-04-25T14:29:02;4.53;;;1.08;;
44328;SDS011;30039;51.462;6.892;2023-04-25T14:31:48;4.10;;;0.80;;
44328;SDS011;30039;51.462;6.892;2023-04-25T14:34:34;2.03;;;0.95;;
44328;SDS011;30039;51.462;6.892;2023-04-25T14:37:20;4.45;;;1.00;;
44328;SDS011;30039;51.462;6.892;2023-04-25T14:40:08;3.63;;;0.80;;
44328;SDS011;30039;51.462;6.892;2023-04-25T14:42:55;3.88;;;0.95;;
44328;SDS011;30039;51.462;6.892;2023-04-25T14:45:42;3.28;;;1.00;;
44328;SDS011;30039;51.462;6.892;2023-04-25T14:48:28;4.68;;;1.00;;
44328;SDS011;30039;51.462;6.892;2023-04-25T14:51:14;4.90;;;0.88;;
44328;SDS011;30039;51.462;6.892;2023-04-25T14:54:02;4.78;;;0.90;;
44328;SDS011;30039;51.462;6.892;2023-04-25T14:56:47;3.33;;;1.08;;
44328;SDS011;30039;51.462;6.892;2023-04-25T14:59:33;4.60;;;1.27;;
44328;SDS011;30039;51.462;6.892;2023-04-25T15:02:19;3.60;;;1.20;;
44328;SDS011;30039;51.462;6.892;2023-04-25T15:05:04;5.70;;;1.40;;
44328;SDS011;30039;51.462;6.892;2023-04-25T15:07:51;4.43;;;1.00;;
44328;SDS011;30039;51.462;6.892;2023-04-25T15:10:37;3.15;;;1.00;;
44328;SDS011;30039;51.462;6.892;2023-04-25T15:13:24;3.03;;;1.02;;
44328;SDS011;30039;51.462;6.892;2023-04-25T15:16:10;9.88;;;1.42;;
44328;SDS011;30039;51.462;6.892;2023-04-25T15:18:56;9.00;;;2.10;;
44328;SDS011;30039;51.462;6.892;2023-04-25T15:21:43;3.97;;;1.08;;
44328;SDS011;30039;51.462;6.892;2023-04-25T15:24:29;3.88;;;1.50;;
44328;SDS011;30039;51.462;6.892;2023-04-25T15:27:14;4.20;;;1.40;;
44328;SDS011;30039;51.462;6.892;2023-04-25T15:30:01;5.57;;;1.25;;
44328;SDS011;30039;51.462;6.892;2023-04-25T15:32:46;4.72;;;0.98;;
44328;SDS011;30039;51.462;6.892;2023-04-25T15:35:34;1.73;;;0.88;;
44328;SDS011;30039;51.462;6.892;2023-04-25T15:38:20;2.75;;;1.05;;
44328;SDS011;30039;51.462;6.892;2023-04-25T15:41:05;2.50;;;0.90;;
44328;SDS011;30039;51.462;6.892;2023-04-25T15:43:51;3.10;;;0.90;;
44328;SDS011;30039;51.462;6.892;2023-04-25T15:46:37;3.80;;;1.58;;
44328;SDS011;30039;51.462;6.892;2023-04-25T15:49:23;2.90;;;1.13;;
44328;SDS011;30039;51.462;6.892;2023-04-25T15:52:10;2.67;;;1.00;;
44328;SDS011;30039;51.462;6.892;2023-04-25T15:54:55;1.08;;;0.60;;
44328;SDS011;30039;51.462;6.892;2023-04-25T15:57:41;3.50;;;1.10;;
44328;SDS011;30039;51.462;6.892;2023-04-25T16:00:27;7.57;;;1.23;;
44328;SDS011;30039;51.462;6.892;2023-04-25T16:03:13;2.35;;;0.90;;
44328;SDS011;30039;51.462;6.892;2023-04-25T16:05:59;3.28;;;0.88;;
44328;SDS011;30039;51.462;6.892;2023-04-25T16:08:44;4.00;;;1.10;;
44328;SDS011;30039;51.462;6.892;2023-04-25T16:11:30;4.57;;;1.15;;
44328;SDS011;30039;51.462;6.892;2023-04-25T16:14:16;1.88;;;0.90;;
44328;SDS011;30039;51.462;6.892;2023-04-25T16:17:02;3.53;;;1.00;;
44328;SDS011;30039;51.462;6.892;2023-04-25T16:19:47;3.15;;;0.80;;
44328;SDS011;30039;51.462;6.892;2023-04-25T16:22:35;4.22;;;0.85;;
44328;SDS011;30039;51.462;6.892;2023-04-25T16:25:21;2.10;;;1.08;;
44328;SDS011;30039;51.462;6.892;2023-04-25T16:28:06;2.08;;;0.90;;
44328;SDS011;30039;51.462;6.892;2023-04-25T16:30:52;3.45;;;1.27;;
44328;SDS011;30039;51.462;6.892;2023-04-25T16:33:38;4.50;;;1.48;;
44328;SDS011;30039;51.462;6.892;2023-04-25T16:36:23;1.73;;;0.90;;
44328;SDS011;30039;51.462;6.892;2023-04-25T16:39:09;6.15;;;1.48;;
44328;SDS011;30039;51.462;6.892;2023-04-25T16:41:56;3.50;;;1.48;;
44328;SDS011;30039;51.462;6.892;2023-04-25T16:44:42;4.20;;;1.35;;
44328;SDS011;30039;51.462;6.892;2023-04-25T16:47:28;2.47;;;1.20;;